Time;durP1;ratioP1;P1;durP2;ratioP2;P2;SDS_P1;SDS_P2;PMS_P1;PMS_P2;Temp;Humidity;BMP_temperature;BMP_pressure;BME280_temperature;BME280_humidity;BME280_pressure;Samples;Min_cycle;Max_cycle;Signal;HPM_P1;HPM_P2
2023/07/31 00:00:31;;;;;;;6.50;3.90;;;15.80;99.90;;;;;;6066559;23;20018;-81
2023/07/31 00:02:57;;;;;;;7.13;3.78;;;15.80;99.90;;;;;;6067273;23;20524;-80
2023/07/31 00:05:23;;;;;;;5.95;3.90;;;15.70;99.90;;;;;;6042844;23;20089;-80
2023/07/31 00:07:48;;;;;;;4.97;3.95;;;15.70;99.90;;;;;;6067149;23;20018;-81
2023/07/31 00:10:14;;;;;;;4.82;3.80;;;15.70;99.90;;;;;;6091410;23;20082;-82
2023/07/31 00:12:43;;;;;;;5.15;3.63;;;15.70;99.90;;;;;;6067199;23;20420;-82
2023/07/31 00:15:09;;;;;;;6.07;3.97;;;15.60;99.90;;;;;;6091155;23;20592;-81
2023/07/31 00:17:35;;;;;;;7.47;4.30;;;15.60;99.90;;;;;;6091650;23;20018;-81
2023/07/31 00:20:01;;;;;;;5.05;3.83;;;15.50;99.90;;;;;;6091666;23;20018;-82
2023/07/31 00:22:27;;;;;;;6.45;4.50;;;15.50;99.90;;;;;;6091670;23;20359;-82
2023/07/31 00:24:53;;;;;;;5.18;3.97;;;15.50;99.90;;;;;;6093638;23;20069;-81
2023/07/31 00:27:19;;;;;;;5.22;4.00;;;15.50;99.90;;;;;;6068881;23;20020;-82
2023/07/31 00:29:45;;;;;;;4.75;3.88;;;15.50;99.90;;;;;;6094724;23;20014;-82
2023/07/31 00:32:10;;;;;;;5.70;4.20;;;15.50;99.90;;;;;;6093409;23;20299;-81
2023/07/31 00:34:37;;;;;;;5.00;4.13;;;15.50;99.90;;;;;;6091496;23;20337;-82
2023/07/31 00:37:03;;;;;;;6.18;4.35;;;15.50;99.90;;;;;;6092166;23;20121;-81
2023/07/31 00:39:30;;;;;;;5.90;4.45;;;15.50;99.90;;;;;;6043871;23;20473;-83
2023/07/31 00:41:56;;;;;;;4.72;4.15;;;15.50;99.90;;;;;;6092908;23;20014;-83
2023/07/31 00:44:22;;;;;;;5.90;4.03;;;15.50;99.90;;;;;;6043964;23;20021;-84
2023/07/31 00:46:48;;;;;;;6.88;4.80;;;15.50;99.90;;;;;;6067726;23;20024;-81
2023/07/31 00:49:14;;;;;;;6.97;4.45;;;15.50;99.90;;;;;;6091698;23;20018;-81
2023/07/31 00:51:40;;;;;;;5.95;4.43;;;15.40;99.90;;;;;;6067859;23;20022;-82
2023/07/31 00:54:06;;;;;;;5.20;4.20;;;15.40;99.90;;;;;;6068451;23;20025;-82
2023/07/31 00:56:32;;;;;;;7.38;4.28;;;15.40;99.90;;;;;;6093979;23;20026;-81
2023/07/31 00:58:58;;;;;;;6.32;4.40;;;15.40;99.90;;;;;;6093924;23;20025;-82
2023/07/31 01:01:24;;;;;;;4.70;4.20;;;15.40;99.90;;;;;;6094949;23;20389;-82
2023/07/31 01:03:53;;;;;;;4.70;3.80;;;15.40;99.90;;;;;;6118578;23;20023;-85
2023/07/31 01:06:34;;;;;;;6.28;3.92;;;15.40;99.90;;;;;;6094186;23;20025;-85
2023/07/31 01:09:07;;;;;;;4.47;3.67;;;15.40;99.90;;;;;;6093457;23;20046;-82
2023/07/31 01:11:49;;;;;;;5.30;3.90;;;15.40;99.90;;;;;;6093835;23;20029;-83
2023/07/31 01:14:14;;;;;;;;;;;15.30;99.90;;;;;;6093517;23;20082;-83
2023/07/31 01:16:40;;;;;;;5.22;3.40;;;15.30;99.90;;;;;;6094876;23;19921;-83
2023/07/31 01:19:09;;;;;;;6.78;3.72;;;15.30;99.90;;;;;;6069527;23;20022;-84
2023/07/31 01:21:58;;;;;;;4.00;3.60;;;15.30;99.90;;;;;;6093180;23;20089;-81
2023/07/31 01:24:52;;;;;;;4.78;3.80;;;15.30;99.90;;;;;;6093715;23;20138;-84
2023/07/31 01:27:23;;;;;;;3.72;2.88;;;15.30;99.90;;;;;;6093975;23;20797;-83
2023/07/31 01:29:59;;;;;;;3.20;2.70;;;15.30;99.90;;;;;;6093489;23;20129;-87
2023/07/31 01:32:27;;;;;;;4.50;3.35;;;15.30;99.90;;;;;;6093530;23;20471;-85
2023/07/31 01:34:54;;;;;;;5.55;3.05;;;15.20;99.90;;;;;;6093791;23;20108;-87
2023/07/31 01:37:20;;;;;;;2.72;2.42;;;15.30;99.90;;;;;;6093729;23;20466;-83
2023/07/31 01:39:46;;;;;;;2.58;2.38;;;15.30;99.90;;;;;;6093142;23;20093;-84
2023/07/31 01:42:11;;;;;;;2.90;2.33;;;15.30;99.90;;;;;;6093385;23;20026;-84
2023/07/31 01:44:37;;;;;;;2.67;2.05;;;15.30;99.90;;;;;;6093591;23;20054;-84
2023/07/31 01:47:03;;;;;;;3.17;1.83;;;15.20;99.90;;;;;;6117877;23;20491;-84
2023/07/31 01:49:29;;;;;;;3.05;1.67;;;15.20;99.90;;;;;;6095460;23;20326;-85
2023/07/31 01:51:54;;;;;;;2.88;1.83;;;15.20;99.90;;;;;;6069837;23;20041;-84
2023/07/31 01:54:20;;;;;;;1.90;1.67;;;15.30;99.90;;;;;;6093454;23;20046;-84
2023/07/31 01:56:46;;;;;;;2.10;1.55;;;15.30;99.90;;;;;;6095266;23;20089;-86
2023/07/31 01:59:11;;;;;;;2.65;1.40;;;15.20;99.90;;;;;;6093188;23;20121;-88
2023/07/31 02:01:37;;;;;;;2.47;1.25;;;15.20;99.90;;;;;;6093466;23;20022;-85
2023/07/31 02:04:04;;;;;;;2.17;1.30;;;15.20;99.90;;;;;;6133496;23;20010;-87
2023/07/31 02:06:30;;;;;;;2.20;1.50;;;15.20;99.90;;;;;;6094889;23;20270;-87
2023/07/31 02:08:56;;;;;;;1.40;1.27;;;15.30;99.90;;;;;;6093709;23;20018;-86
2023/07/31 02:11:22;;;;;;;1.35;1.25;;;15.20;99.90;;;;;;6093315;23;20022;-87
2023/07/31 02:13:47;;;;;;;1.70;1.60;;;15.20;99.90;;;;;;6093707;23;20022;-87
2023/07/31 02:16:13;;;;;;;3.05;1.50;;;15.30;99.90;;;;;;6093555;23;20014;-86
2023/07/31 02:18:39;;;;;;;2.70;1.70;;;15.30;99.90;;;;;;6093204;23;20022;-87
2023/07/31 02:21:05;;;;;;;1.60;1.30;;;15.30;99.90;;;;;;6093012;23;20400;-87
2023/07/31 02:23:30;;;;;;;1.88;1.50;;;15.30;99.90;;;;;;6093264;23;20077;-86
2023/07/31 02:25:56;;;;;;;1.75;1.65;;;15.30;99.90;;;;;;6092645;23;20014;-86
2023/07/31 02:28:22;;;;;;;1.67;1.58;;;15.30;99.90;;;;;;6092809;23;20026;-83
2023/07/31 02:30:49;;;;;;;1.65;1.55;;;15.30;99.90;;;;;;6095039;23;20018;-86
2023/07/31 02:33:16;;;;;;;3.15;1.63;;;15.30;99.90;;;;;;6092188;23;20437;-87
2023/07/31 02:35:42;;;;;;;1.90;1.77;;;15.30;99.90;;;;;;6094958;23;20033;-86
2023/07/31 02:38:07;;;;;;;1.65;1.55;;;15.30;99.90;;;;;;6092262;23;20026;-85
2023/07/31 02:40:36;;;;;;;1.73;1.63;;;15.30;99.90;;;;;;6092373;23;20021;-86
2023/07/31 02:43:02;;;;;;;1.67;1.58;;;15.40;99.90;;;;;;6068472;23;20018;-83
2023/07/31 02:45:28;;;;;;;1.85;1.70;;;15.30;99.90;;;;;;6092735;23;20018;-87
2023/07/31 02:47:53;;;;;;;2.10;1.88;;;15.30;99.90;;;;;;6092480;23;20030;-86
2023/07/31 02:50:19;;;;;;;2.15;1.83;;;15.40;99.90;;;;;;6092877;23;20022;-87
2023/07/31 02:52:45;;;;;;;2.20;1.70;;;15.40;99.90;;;;;;6093571;23;20022;-87
2023/07/31 02:55:13;;;;;;;2.17;1.98;;;15.40;99.90;;;;;;6092746;23;20022;-89
2023/07/31 02:57:39;;;;;;;1.83;1.60;;;15.40;99.90;;;;;;6068776;23;20010;-88
2023/07/31 03:00:06;;;;;;;3.00;1.67;;;15.40;99.90;;;;;;6093602;23;20026;-86
2023/07/31 03:02:32;;;;;;;1.70;1.60;;;15.40;99.90;;;;;;6093077;23;20611;-87
2023/07/31 03:04:58;;;;;;;2.58;1.70;;;15.40;99.90;;;;;;6092807;23;20026;-85
2023/07/31 03:07:24;;;;;;;1.92;1.60;;;15.40;99.90;;;;;;6092702;23;20026;-89
2023/07/31 03:09:49;;;;;;;1.73;1.60;;;15.40;99.90;;;;;;6117658;23;20019;-87
2023/07/31 03:12:15;;;;;;;1.30;1.20;;;15.50;99.90;;;;;;6093456;23;20069;-87
2023/07/31 03:14:41;;;;;;;1.40;1.30;;;15.50;99.90;;;;;;6093125;23;20022;-87
2023/07/31 03:17:09;;;;;;;1.63;1.52;;;15.50;99.90;;;;;;6092284;23;20022;-87
2023/07/31 03:19:35;;;;;;;1.60;1.50;;;15.50;99.90;;;;;;6068110;23;20026;-87
2023/07/31 03:22:01;;;;;;;1.38;1.27;;;15.50;99.90;;;;;;6091890;23;20018;-87
2023/07/31 03:24:30;;;;;;;1.92;1.50;;;15.60;99.90;;;;;;6091856;23;20267;-87
2023/07/31 03:26:56;;;;;;;1.63;1.27;;;15.60;99.90;;;;;;6092071;23;20018;-87
2023/07/31 03:29:22;;;;;;;1.60;1.50;;;15.60;99.90;;;;;;6092340;23;20085;-89
2023/07/31 03:31:47;;;;;;;1.70;1.48;;;15.60;99.90;;;;;;6092063;23;20029;-88
2023/07/31 03:34:16;;;;;;;3.03;1.90;;;15.60;99.90;;;;;;6068752;23;20022;-88
2023/07/31 03:36:42;;;;;;;4.20;1.92;;;15.60;99.90;;;;;;6073125;23;20018;-91
2023/07/31 03:39:08;;;;;;;3.20;2.50;;;15.60;99.90;;;;;;6114598;23;20010;-88
2023/07/31 03:41:33;;;;;;;2.53;2.30;;;15.60;99.90;;;;;;6098034;23;20090;-89
2023/07/31 03:43:59;;;;;;;1.95;1.80;;;15.60;99.90;;;;;;6092462;23;20021;-87
2023/07/31 03:46:25;;;;;;;2.63;2.42;;;15.60;99.90;;;;;;6044375;23;20056;-88
2023/07/31 03:48:51;;;;;;;3.50;2.20;;;15.60;99.90;;;;;;6092291;23;20025;-89
2023/07/31 03:51:17;;;;;;;2.45;1.67;;;15.60;99.90;;;;;;6092192;23;20011;-89
2023/07/31 03:53:44;;;;;;;2.00;1.67;;;15.60;99.90;;;;;;6092104;23;20046;-89
2023/07/31 03:56:10;;;;;;;1.90;1.50;;;15.60;99.90;;;;;;6091957;23;20018;-88
2023/07/31 03:58:36;;;;;;;1.60;1.50;;;15.70;99.90;;;;;;6091998;23;20018;-88
2023/07/31 04:01:03;;;;;;;1.20;1.10;;;15.70;99.90;;;;;;6092429;23;20440;-85
2023/07/31 04:03:29;;;;;;;1.15;1.05;;;15.70;99.90;;;;;;6091822;23;20022;-88
2023/07/31 04:05:56;;;;;;;1.40;1.27;;;15.70;99.90;;;;;;6091523;23;20014;-88
2023/07/31 04:08:22;;;;;;;2.08;1.40;;;15.70;99.90;;;;;;6091743;23;20089;-86
2023/07/31 04:10:48;;;;;;;1.30;1.10;;;15.70;99.90;;;;;;6092052;23;20098;-87
2023/07/31 04:13:14;;;;;;;1.17;1.00;;;15.70;99.90;;;;;;6091816;23;20014;-87
2023/07/31 04:15:40;;;;;;;1.10;1.00;;;15.80;99.90;;;;;;6092202;23;20015;-88
2023/07/31 04:18:06;;;;;;;2.40;1.10;;;15.80;99.90;;;;;;6092589;23;20724;-87
2023/07/31 04:20:31;;;;;;;1.25;1.15;;;15.80;99.90;;;;;;6091915;23;20018;-88
2023/07/31 04:22:57;;;;;;;1.55;1.20;;;15.90;99.90;;;;;;6091892;23;20023;-87
2023/07/31 04:25:25;;;;;;;1.35;1.25;;;15.90;99.90;;;;;;6092230;23;20019;-88
2023/07/31 04:27:51;;;;;;;2.33;1.67;;;15.90;99.90;;;;;;6092753;23;20022;-89
2023/07/31 04:30:17;;;;;;;2.58;1.80;;;15.90;99.90;;;;;;6068716;23;20018;-89
2023/07/31 04:32:43;;;;;;;3.15;2.13;;;15.90;99.90;;;;;;6093034;23;20096;-90
2023/07/31 04:35:09;;;;;;;2.92;2.40;;;15.90;99.90;;;;;;6096171;23;20073;-92
2023/07/31 04:37:34;;;;;;;4.10;2.83;;;15.90;99.90;;;;;;6096158;23;20018;-93
2023/07/31 04:40:03;;;;;;;3.22;2.80;;;15.90;99.90;;;;;;6097089;23;20014;-93
2023/07/31 04:42:31;;;;;;;2.72;2.22;;;15.90;99.90;;;;;;6095306;23;20322;-90
2023/07/31 04:44:57;;;;;;;2.53;2.10;;;15.90;99.90;;;;;;6093510;23;20011;-88
2023/07/31 04:47:22;;;;;;;2.78;2.00;;;15.90;99.90;;;;;;6096160;23;20076;-92
2023/07/31 04:49:48;;;;;;;2.83;1.90;;;15.90;99.90;;;;;;6097002;23;20057;-92
2023/07/31 04:52:14;;;;;;;3.05;1.48;;;15.90;99.90;;;;;;6097581;23;20019;-94
2023/07/31 04:54:40;;;;;;;1.70;1.42;;;15.90;99.90;;;;;;6094819;23;20026;-93
2023/07/31 04:57:06;;;;;;;2.00;1.50;;;15.90;99.90;;;;;;6093564;23;20022;-87
2023/07/31 04:59:32;;;;;;;3.38;1.38;;;15.90;99.90;;;;;;6094825;23;20022;-89
2023/07/31 05:01:58;;;;;;;2.17;1.35;;;15.90;99.90;;;;;;6092677;23;20022;-91
2023/07/31 05:04:23;;;;;;;1.70;1.20;;;16.00;99.90;;;;;;6068758;23;20062;-89
2023/07/31 05:06:50;;;;;;;2.25;1.10;;;15.90;99.90;;;;;;6092716;23;20456;-88
2023/07/31 05:09:16;;;;;;;2.40;1.48;;;16.00;99.90;;;;;;6093206;23;20018;-89
2023/07/31 05:11:42;;;;;;;1.83;1.52;;;15.90;99.90;;;;;;6098329;23;20022;-93
2023/07/31 05:14:09;;;;;;;3.05;1.60;;;16.00;99.90;;;;;;6116648;23;20013;-92
2023/07/31 05:16:34;;;;;;;3.63;1.48;;;16.00;99.90;;;;;;6103530;23;20014;-93
2023/07/31 05:19:00;;;;;;;2.63;1.80;;;16.00;99.90;;;;;;6094587;23;20010;-90
2023/07/31 05:21:26;;;;;;;1.60;1.35;;;16.00;99.90;;;;;;6092879;23;20014;-90
2023/07/31 05:23:53;;;;;;;5.32;2.30;;;16.00;99.90;;;;;;6091719;23;20469;-89
2023/07/31 05:26:18;;;;;;;4.70;2.58;;;16.00;99.90;;;;;;6091890;23;20061;-89
2023/07/31 05:28:44;;;;;;;4.10;2.88;;;16.00;99.90;;;;;;6091961;23;20026;-88
2023/07/31 05:31:10;;;;;;;5.50;2.85;;;16.00;99.90;;;;;;6091896;23;20452;-86
2023/07/31 05:33:35;;;;;;;11.93;5.00;;;16.00;99.90;;;;;;6092445;23;20018;-89
2023/07/31 05:36:01;;;;;;;8.25;4.93;;;16.10;99.90;;;;;;6091590;23;20022;-84
2023/07/31 05:38:27;;;;;;;13.82;6.22;;;16.10;99.90;;;;;;6091621;23;20029;-90
2023/07/31 05:40:53;;;;;;;13.32;5.80;;;16.10;99.90;;;;;;6093190;23;20010;-89
2023/07/31 05:43:18;;;;;;;15.25;7.30;;;16.20;99.90;;;;;;6093571;23;20015;-90
2023/07/31 05:45:44;;;;;;;17.48;6.82;;;16.20;99.90;;;;;;6093846;23;20014;-87
2023/07/31 05:48:13;;;;;;;18.77;7.13;;;16.20;99.90;;;;;;6094103;23;20525;-88
2023/07/31 05:50:39;;;;;;;22.45;7.65;;;16.30;99.90;;;;;;6093874;23;20058;-85
2023/07/31 05:53:06;;;;;;;20.48;8.10;;;16.30;99.90;;;;;;6093677;23;20026;-88
2023/07/31 05:55:32;;;;;;;15.55;7.78;;;16.30;99.90;;;;;;6093756;23;20022;-89
2023/07/31 05:57:57;;;;;;;18.45;7.65;;;16.30;99.90;;;;;;6069869;23;20356;-87
2023/07/31 06:00:23;;;;;;;17.50;7.75;;;16.30;99.90;;;;;;6093828;23;20021;-87
2023/07/31 06:02:49;;;;;;;20.13;7.88;;;16.30;99.90;;;;;;6092930;23;20030;-91
2023/07/31 06:05:15;;;;;;;20.98;8.27;;;16.40;99.90;;;;;;6093033;23;20017;-90
2023/07/31 06:07:41;;;;;;;22.80;9.00;;;16.40;99.90;;;;;;6092575;23;20018;-86
2023/07/31 06:10:08;;;;;;;19.25;8.27;;;16.40;99.90;;;;;;6093263;23;20333;-86
2023/07/31 06:12:34;;;;;;;24.20;8.32;;;16.40;99.90;;;;;;6093036;23;20018;-85
2023/07/31 06:15:00;;;;;;;23.42;9.45;;;16.40;99.90;;;;;;6092526;23;20049;-85
2023/07/31 06:17:29;;;;;;;23.80;9.32;;;16.40;99.90;;;;;;6092941;23;20014;-83
2023/07/31 06:19:56;;;;;;;20.55;8.77;;;16.40;99.90;;;;;;6092524;23;20025;-85
2023/07/31 06:22:22;;;;;;;22.08;9.18;;;16.40;99.90;;;;;;6093208;23;20029;-88
2023/07/31 06:24:47;;;;;;;23.08;8.57;;;16.40;99.90;;;;;;6068758;23;20340;-84
2023/07/31 06:27:13;;;;;;;19.58;8.27;;;16.50;99.90;;;;;;6117491;23;20495;-85
2023/07/31 06:29:39;;;;;;;22.85;9.15;;;16.50;99.90;;;;;;6093124;23;20018;-83
2023/07/31 06:32:05;;;;;;;22.55;8.80;;;16.50;99.90;;;;;;6093186;23;20093;-83
2023/07/31 06:34:31;;;;;;;23.38;9.13;;;16.50;99.90;;;;;;6093005;23;20023;-86
2023/07/31 06:36:57;;;;;;;20.08;8.73;;;16.50;99.90;;;;;;6092799;23;20019;-87
2023/07/31 06:39:22;;;;;;;18.50;7.30;;;16.50;99.90;;;;;;6092389;23;20093;-87
2023/07/31 06:41:48;;;;;;;16.58;7.60;;;16.50;99.90;;;;;;6092292;23;20016;-84
2023/07/31 06:44:14;;;;;;;18.58;7.55;;;16.50;99.90;;;;;;6068297;23;20112;-86
2023/07/31 06:46:40;;;;;;;16.25;7.20;;;16.50;99.90;;;;;;6092344;23;20104;-84
2023/07/31 06:49:06;;;;;;;21.23;8.80;;;16.50;99.90;;;;;;6095634;23;20014;-84
2023/07/31 06:51:31;;;;;;;18.25;8.18;;;16.50;99.90;;;;;;6095303;23;20021;-84
2023/07/31 06:53:58;;;;;;;22.55;9.50;;;16.60;99.90;;;;;;6090967;23;20109;-87
2023/07/31 06:56:24;;;;;;;22.35;9.98;;;16.60;99.90;;;;;;6092057;23;20018;-86
2023/07/31 06:58:49;;;;;;;23.90;9.68;;;16.60;99.90;;;;;;6092737;23;20093;-84
2023/07/31 07:01:15;;;;;;;23.63;9.77;;;16.60;99.90;;;;;;6091881;23;20142;-86
2023/07/31 07:03:41;;;;;;;24.23;10.10;;;16.60;99.90;;;;;;6092033;23;20146;-84
2023/07/31 07:06:07;;;;;;;26.20;11.25;;;16.60;99.90;;;;;;6068091;23;20019;-85
2023/07/31 07:08:32;;;;;;;31.00;9.35;;;16.70;99.90;;;;;;6068887;23;20041;-85
2023/07/31 07:10:58;;;;;;;25.30;10.88;;;16.60;99.90;;;;;;6068254;23;20020;-86
2023/07/31 07:13:24;;;;;;;19.40;10.07;;;16.60;99.90;;;;;;6068477;23;20460;-84
2023/07/31 07:15:50;;;;;;;22.95;10.05;;;16.60;99.90;;;;;;6068093;23;20010;-84
2023/07/31 07:18:16;;;;;;;21.48;10.18;;;16.60;99.90;;;;;;6091724;23;20019;-87
2023/07/31 07:20:52;;;;;;;25.83;10.23;;;16.60;99.90;;;;;;6067611;23;20020;-84
2023/07/31 07:23:19;;;;;;;25.17;10.82;;;16.60;99.90;;;;;;6093093;23;20022;-84
2023/07/31 07:25:46;;;;;;;22.60;10.27;;;16.60;99.90;;;;;;6094887;23;20014;-85
2023/07/31 07:28:12;;;;;;;19.20;10.10;;;16.50;99.90;;;;;;6095079;23;20467;-85
2023/07/31 07:30:38;;;;;;;15.88;7.85;;;16.50;99.90;;;;;;6092820;23;20022;-83
2023/07/31 07:33:03;;;;;;;15.52;7.82;;;16.50;99.90;;;;;;6092977;23;20413;-83
2023/07/31 07:35:29;;;;;;;19.33;9.25;;;16.50;99.90;;;;;;6092674;23;20007;-84
2023/07/31 07:37:55;;;;;;;16.55;8.85;;;16.50;99.90;;;;;;6092757;23;20025;-82
2023/07/31 07:40:21;;;;;;;18.05;8.45;;;16.50;99.90;;;;;;6093159;23;20019;-82
2023/07/31 07:42:47;;;;;;;15.43;8.77;;;16.50;99.90;;;;;;6069121;23;20018;-86
2023/07/31 07:45:13;;;;;;;12.50;7.35;;;16.50;99.90;;;;;;6068652;23;20014;-83
2023/07/31 07:47:41;;;;;;;13.65;7.32;;;16.50;99.90;;;;;;6092375;23;20026;-85
2023/07/31 07:50:07;;;;;;;11.00;6.57;;;16.50;99.90;;;;;;6092649;23;20023;-84
2023/07/31 07:52:33;;;;;;;12.43;5.90;;;16.50;99.90;;;;;;6068405;23;20065;-86
2023/07/31 07:55:00;;;;;;;11.13;5.95;;;16.50;99.90;;;;;;6091937;23;20457;-85
2023/07/31 07:57:26;;;;;;;12.15;6.35;;;16.50;99.90;;;;;;6091374;23;20540;-85
2023/07/31 07:59:52;;;;;;;8.63;5.75;;;16.50;99.90;;;;;;6091110;23;20014;-84
2023/07/31 08:02:17;;;;;;;9.05;5.15;;;16.50;99.90;;;;;;6067330;23;20507;-84
2023/07/31 08:04:43;;;;;;;11.48;5.25;;;16.60;99.90;;;;;;6091187;23;20018;-82
2023/07/31 08:07:12;;;;;;;9.35;5.18;;;16.60;99.90;;;;;;6067787;23;20663;-83
2023/07/31 08:09:38;;;;;;;8.73;4.85;;;16.50;99.90;;;;;;6091998;23;20019;-85
2023/07/31 08:12:04;;;;;;;7.18;4.57;;;16.50;99.90;;;;;;6090553;23;20073;-87
2023/07/31 08:14:30;;;;;;;10.60;4.97;;;16.50;99.90;;;;;;6043993;23;20018;-87
2023/07/31 08:16:56;;;;;;;9.15;4.97;;;16.50;99.90;;;;;;6067468;23;20353;-86
2023/07/31 08:19:22;;;;;;;10.88;4.75;;;16.50;99.90;;;;;;6067251;23;20069;-85
2023/07/31 08:21:47;;;;;;;8.80;4.47;;;16.60;99.90;;;;;;6067792;23;20022;-85
2023/07/31 08:24:13;;;;;;;8.43;4.32;;;16.50;99.90;;;;;;6071154;23;20080;-83
2023/07/31 08:26:39;;;;;;;7.30;4.30;;;16.50;99.90;;;;;;6072943;23;20025;-87
2023/07/31 08:29:05;;;;;;;7.53;4.07;;;16.60;99.90;;;;;;6092196;23;20014;-85
2023/07/31 08:31:30;;;;;;;6.43;3.50;;;16.60;99.90;;;;;;6091546;23;20021;-88
2023/07/31 08:33:56;;;;;;;6.82;4.00;;;16.70;99.90;;;;;;6091573;23;20025;-85
2023/07/31 08:36:22;;;;;;;5.55;3.83;;;16.70;99.90;;;;;;6091856;23;20041;-85
2023/07/31 08:38:49;;;;;;;5.65;3.53;;;16.70;99.90;;;;;;6090731;23;20030;-84
2023/07/31 08:41:17;;;;;;;4.90;3.75;;;16.70;99.90;;;;;;6091273;23;20014;-87
2023/07/31 08:43:45;;;;;;;6.72;3.63;;;16.80;99.90;;;;;;6067705;23;20019;-85
2023/07/31 08:46:11;;;;;;;7.03;3.88;;;16.80;99.90;;;;;;6091139;23;20021;-86
2023/07/31 08:48:38;;;;;;;6.65;3.92;;;16.80;99.90;;;;;;6067443;23;20011;-86
2023/07/31 08:51:04;;;;;;;5.32;3.95;;;16.80;99.90;;;;;;6090729;23;20018;-84
2023/07/31 08:53:30;;;;;;;5.10;4.30;;;16.80;99.90;;;;;;6091452;23;20018;-86
2023/07/31 08:55:58;;;;;;;5.07;3.67;;;16.80;99.90;;;;;;6067696;23;20070;-83
2023/07/31 08:58:25;;;;;;;5.68;3.60;;;16.90;99.90;;;;;;6092348;23;20014;-85
2023/07/31 09:00:51;;;;;;;5.05;3.63;;;16.90;99.90;;;;;;6092399;23;20399;-84
2023/07/31 09:03:25;;;;;;;4.97;3.67;;;16.90;99.90;;;;;;6093202;23;20022;-82
2023/07/31 09:05:51;;;;;;;4.18;3.42;;;16.90;99.90;;;;;;6093562;23;20429;-83
2023/07/31 09:08:21;;;;;;;5.53;3.80;;;16.90;99.90;;;;;;6092642;23;20566;-80
2023/07/31 09:10:51;;;;;;;5.82;3.50;;;17.00;99.90;;;;;;6092604;23;20014;-81
2023/07/31 09:13:17;;;;;;;4.97;3.70;;;17.00;99.90;;;;;;6092550;23;20018;-85
2023/07/31 09:15:44;;;;;;;4.32;3.45;;;17.10;99.90;;;;;;6093791;23;20018;-83
2023/07/31 09:18:10;;;;;;;5.03;3.83;;;17.20;99.90;;;;;;6094246;23;20018;-81
2023/07/31 09:20:37;;;;;;;3.50;3.20;;;17.20;99.90;;;;;;6070104;23;20621;-81
2023/07/31 09:23:08;;;;;;;3.28;2.97;;;17.30;99.90;;;;;;6070167;23;20014;-80
2023/07/31 09:25:33;;;;;;;3.65;2.72;;;17.30;99.90;;;;;;6094644;23;20014;-80
2023/07/31 09:28:01;;;;;;;3.28;2.75;;;17.30;99.90;;;;;;6094637;23;20465;-82
2023/07/31 09:30:27;;;;;;;3.28;2.88;;;17.30;99.90;;;;;;6070787;23;20014;-81
2023/07/31 09:33:02;;;;;;;2.95;2.60;;;17.40;99.90;;;;;;6046685;23;20053;-84
2023/07/31 09:35:33;;;;;;;2.38;2.17;;;17.30;99.90;;;;;;6095235;23;20025;-81
2023/07/31 09:38:03;;;;;;;2.80;2.50;;;17.30;99.90;;;;;;6095434;23;20010;-81
2023/07/31 09:40:29;;;;;;;3.30;2.60;;;17.30;99.90;;;;;;6095601;23;20344;-82
2023/07/31 09:43:10;;;;;;;3.55;2.20;;;17.30;99.90;;;;;;6095447;23;20046;-83
2023/07/31 09:45:38;;;;;;;3.88;2.20;;;17.30;99.90;;;;;;6095194;23;20456;-81
2023/07/31 09:48:09;;;;;;;3.35;1.90;;;17.30;99.90;;;;;;6095904;23;20093;-87
2023/07/31 09:50:38;;;;;;;2.13;1.73;;;17.30;99.90;;;;;;6097086;23;20089;-85
2023/07/31 09:53:04;;;;;;;1.73;1.63;;;17.30;99.90;;;;;;6095634;23;20010;-83
2023/07/31 09:55:31;;;;;;;1.60;1.50;;;17.40;99.90;;;;;;6048054;23;20150;-83
2023/07/31 09:57:57;;;;;;;1.92;1.73;;;17.40;99.90;;;;;;6071766;23;20034;-83
2023/07/31 10:00:25;;;;;;;2.67;1.83;;;17.40;99.90;;;;;;6097263;23;20048;-88
2023/07/31 10:02:52;;;;;;;2.40;1.45;;;17.40;99.90;;;;;;6094716;23;20398;-84
2023/07/31 10:05:19;;;;;;;1.90;1.80;;;17.40;99.90;;;;;;6070867;23;20010;-84
2023/07/31 10:07:55;;;;;;;2.20;2.00;;;17.40;99.90;;;;;;6070700;23;20053;-83
2023/07/31 10:10:22;;;;;;;2.33;1.95;;;17.50;99.90;;;;;;6096070;23;20014;-83
2023/07/31 10:12:52;;;;;;;2.40;1.98;;;17.60;99.90;;;;;;6070288;23;20010;-82
2023/07/31 10:15:18;;;;;;;2.10;1.88;;;17.60;99.90;;;;;;6095887;23;20014;-82
2023/07/31 10:17:46;;;;;;;2.10;1.83;;;17.60;99.90;;;;;;6094769;23;20021;-83
2023/07/31 10:20:12;;;;;;;3.15;2.67;;;17.70;99.90;;;;;;6094746;23;20014;-82
2023/07/31 10:22:38;;;;;;;3.22;2.42;;;17.80;99.90;;;;;;6071260;23;20018;-83
2023/07/31 10:25:07;;;;;;;2.63;2.42;;;17.80;99.90;;;;;;6094395;23;20441;-82
2023/07/31 10:27:41;;;;;;;2.10;1.90;;;17.90;99.90;;;;;;6096416;23;20054;-81
2023/07/31 10:30:11;;;;;;;2.50;2.30;;;17.90;99.90;;;;;;6094624;23;20018;-82
2023/07/31 10:32:40;;;;;;;2.55;2.00;;;18.00;99.90;;;;;;6094686;23;20018;-80
2023/07/31 10:35:07;;;;;;;2.92;2.20;;;18.00;99.90;;;;;;6094974;23;20041;-82
2023/07/31 10:37:39;;;;;;;2.28;2.10;;;18.10;99.90;;;;;;6070469;23;20344;-81
2023/07/31 10:40:06;;;;;;;;;;;18.10;99.90;;;;;;6094892;23;20010;-82
2023/07/31 10:42:38;;;;;;;2.95;2.42;;;18.20;99.90;;;;;;6070914;23;20312;-84
2023/07/31 10:45:11;;;;;;;2.88;2.58;;;18.10;99.90;;;;;;6095897;23;20360;-85
2023/07/31 10:47:44;;;;;;;3.10;2.80;;;18.10;99.90;;;;;;6094330;23;20026;-84
2023/07/31 10:50:23;;;;;;;3.30;3.00;;;18.10;99.90;;;;;;6047928;23;20018;-81
2023/07/31 10:52:54;;;;;;;3.25;2.95;;;18.10;99.90;;;;;;6094442;23;20070;-82
2023/07/31 10:55:41;;;;;;;3.30;3.00;;;18.20;99.90;;;;;;6070755;23;20516;-84
2023/07/31 10:58:09;;;;;;;3.10;2.70;;;18.30;99.90;;;;;;6094090;23;20026;-83
2023/07/31 11:00:46;;;;;;;3.50;3.20;;;18.40;99.90;;;;;;6094401;23;20381;-83
2023/07/31 11:03:22;;;;;;;3.72;3.42;;;18.40;99.90;;;;;;6070401;23;20025;-85
2023/07/31 11:05:53;;;;;;;4.53;3.17;;;18.50;99.90;;;;;;6118919;23;20076;-83
2023/07/31 11:08:23;;;;;;;;;;;18.40;99.90;;;;;;6094869;23;20018;-83
2023/07/31 11:11:10;;;;;;;3.03;2.80;;;18.40;99.90;;;;;;6094279;23;19913;-83
2023/07/31 11:13:39;;;;;;;2.95;2.65;;;18.40;99.90;;;;;;6093172;23;20018;-78
2023/07/31 11:16:05;;;;;;;2.40;2.20;;;18.40;99.90;;;;;;6093594;23;20365;-83
2023/07/31 11:18:31;;;;;;;2.65;1.95;;;18.50;99.90;;;;;;6070307;23;20021;-84
2023/07/31 11:20:56;;;;;;;2.10;1.88;;;18.50;99.90;;;;;;6093509;23;20014;-84
2023/07/31 11:23:23;;;;;;;1.83;1.60;;;18.60;99.90;;;;;;6093232;23;20019;-82
2023/07/31 11:25:50;;;;;;;1.20;1.10;;;18.70;99.90;;;;;;6093825;23;20074;-82
2023/07/31 11:28:17;;;;;;;1.08;1.08;;;18.70;99.90;;;;;;6094157;23;20014;-84
2023/07/31 11:30:44;;;;;;;1.35;1.33;;;18.70;99.90;;;;;;6070229;23;20325;-84
2023/07/31 11:33:11;;;;;;;2.30;1.27;;;18.70;99.90;;;;;;6093918;23;20094;-81
2023/07/31 11:35:48;;;;;;;1.17;1.08;;;18.70;99.90;;;;;;6093643;23;20162;-83
2023/07/31 11:38:24;;;;;;;1.20;1.08;;;18.70;99.90;;;;;;6093599;23;20026;-84
2023/07/31 11:40:51;;;;;;;0.90;0.90;;;18.60;99.90;;;;;;6095623;23;20010;-84
2023/07/31 11:43:18;;;;;;;1.23;0.93;;;18.60;99.90;;;;;;6094176;23;20022;-83
2023/07/31 11:45:49;;;;;;;1.33;0.90;;;18.60;99.90;;;;;;6094177;23;20429;-82
2023/07/31 11:48:20;;;;;;;0.60;0.60;;;18.60;99.90;;;;;;6093812;23;20270;-82
2023/07/31 11:50:46;;;;;;;0.80;0.80;;;18.60;99.90;;;;;;6093437;23;20333;-83
2023/07/31 11:53:13;;;;;;;0.73;0.73;;;18.60;99.90;;;;;;6069454;23;20022;-83
2023/07/31 11:55:39;;;;;;;0.85;0.68;;;18.60;99.90;;;;;;6069838;23;20025;-81
2023/07/31 11:58:05;;;;;;;0.70;0.70;;;18.60;99.90;;;;;;6069277;23;20030;-82
2023/07/31 12:00:31;;;;;;;0.70;0.70;;;18.70;99.90;;;;;;6069412;23;20345;-86
2023/07/31 12:02:57;;;;;;;1.13;1.02;;;18.80;99.90;;;;;;6092116;23;20025;-80
2023/07/31 12:05:24;;;;;;;1.70;1.48;;;18.90;99.90;;;;;;6094870;23;20073;-80
2023/07/31 12:07:51;;;;;;;1.92;1.70;;;18.90;99.90;;;;;;6043652;23;20026;-79
2023/07/31 12:10:31;;;;;;;1.92;1.50;;;19.00;99.90;;;;;;6090525;23;20101;-82
2023/07/31 12:13:04;;;;;;;2.28;1.60;;;19.10;99.90;;;;;;6091641;23;20500;-80
2023/07/31 12:15:37;;;;;;;1.90;1.75;;;19.20;99.90;;;;;;6091025;23;20445;-81
2023/07/31 12:18:10;;;;;;;2.30;1.73;;;19.20;99.90;;;;;;6091560;23;20022;-81
2023/07/31 12:20:45;;;;;;;2.25;1.70;;;19.20;99.90;;;;;;6092281;23;20011;-80
2023/07/31 12:23:15;;;;;;;4.88;1.70;;;19.10;99.90;;;;;;6092339;23;20010;-82
2023/07/31 12:25:41;;;;;;;1.42;0.90;;;19.00;99.90;;;;;;6093951;23;20014;-80
2023/07/31 12:28:11;;;;;;;1.98;0.90;;;18.90;99.90;;;;;;6069588;23;20015;-81
2023/07/31 12:30:38;;;;;;;2.40;0.82;;;18.80;99.90;;;;;;6093558;23;20053;-81
2023/07/31 12:33:14;;;;;;;2.80;1.20;;;18.70;99.90;;;;;;6093337;23;20026;-81
2023/07/31 12:35:46;;;;;;;1.33;0.75;;;18.60;99.90;;;;;;6069061;23;20052;-83
2023/07/31 12:38:14;;;;;;;0.82;0.73;;;18.50;99.90;;;;;;6092987;23;20027;-81
2023/07/31 12:40:41;;;;;;;1.67;0.70;;;18.50;99.90;;;;;;6069210;23;20014;-81
2023/07/31 12:43:08;;;;;;;1.58;0.82;;;18.50;99.90;;;;;;6069996;23;20029;-81
2023/07/31 12:45:34;;;;;;;1.05;0.95;;;18.50;99.90;;;;;;6045275;23;20401;-82